sensor_id;sensor_type;location;lat;lon;timestamp;P1;durP1;ratioP1;P2;durP2;ratioP2
51020;SDS011;38907;45.562;8.856;2022-08-19T00:04:10;2.08;;;0.80;;
51020;SDS011;38907;45.562;8.856;2022-08-19T00:09:17;2.13;;;0.82;;
51020;SDS011;38907;45.562;8.856;2022-08-19T00:14:21;0.82;;;0.50;;
51020;SDS011;38907;45.562;8.856;2022-08-19T00:19:24;2.67;;;0.70;;
51020;SDS011;38907;45.562;8.856;2022-08-19T00:24:28;3.20;;;0.70;;
51020;SDS011;38907;45.562;8.856;2022-08-19T00:29:31;1.33;;;0.77;;
51020;SDS011;38907;45.562;8.856;2022-08-19T00:34:34;4.40;;;0.70;;
51020;SDS011;38907;45.562;8.856;2022-08-19T00:39:38;3.22;;;0.98;;
51020;SDS011;38907;45.562;8.856;2022-08-19T00:44:41;2.03;;;0.80;;
51020;SDS011;38907;45.562;8.856;2022-08-19T00:49:45;1.80;;;0.70;;
51020;SDS011;38907;45.562;8.856;2022-08-19T00:54:53;3.58;;;0.60;;
51020;SDS011;38907;45.562;8.856;2022-08-19T00:59:57;1.90;;;0.80;;
51020;SDS011;38907;45.562;8.856;2022-08-19T01:05:03;1.85;;;0.70;;
51020;SDS011;38907;45.562;8.856;2022-08-19T01:10:12;2.03;;;0.60;;
51020;SDS011;38907;45.562;8.856;2022-08-19T01:15:22;6.68;;;0.95;;
51020;SDS011;38907;45.562;8.856;2022-08-19T01:20:28;3.40;;;0.65;;
51020;SDS011;38907;45.562;8.856;2022-08-19T01:25:32;3.60;;;0.73;;
51020;SDS011;38907;45.562;8.856;2022-08-19T01:30:41;1.10;;;0.50;;
51020;SDS011;38907;45.562;8.856;2022-08-19T01:40:48;1.25;;;0.82;;
51020;SDS011;38907;45.562;8.856;2022-08-19T01:45:50;1.35;;;0.70;;
51020;SDS011;38907;45.562;8.856;2022-08-19T01:50:53;1.67;;;0.75;;
51020;SDS011;38907;45.562;8.856;2022-08-19T01:55:57;2.75;;;0.57;;
51020;SDS011;38907;45.562;8.856;2022-08-19T02:01:00;1.30;;;0.80;;
51020;SDS011;38907;45.562;8.856;2022-08-19T02:06:03;4.78;;;1.15;;
51020;SDS011;38907;45.562;8.856;2022-08-19T02:11:08;0.98;;;0.50;;
51020;SDS011;38907;45.562;8.856;2022-08-19T02:16:10;1.48;;;0.50;;
51020;SDS011;38907;45.562;8.856;2022-08-19T02:21:13;4.57;;;0.60;;
51020;SDS011;38907;45.562;8.856;2022-08-19T02:31:20;2.88;;;0.77;;
51020;SDS011;38907;45.562;8.856;2022-08-19T02:36:25;1.00;;;0.68;;
51020;SDS011;38907;45.562;8.856;2022-08-19T02:41:30;2.90;;;0.90;;
51020;SDS011;38907;45.562;8.856;2022-08-19T02:46:33;1.95;;;1.33;;
51020;SDS011;38907;45.562;8.856;2022-08-19T02:56:43;3.20;;;1.00;;
51020;SDS011;38907;45.562;8.856;2022-08-19T03:01:46;4.82;;;0.70;;
51020;SDS011;38907;45.562;8.856;2022-08-19T03:06:49;7.18;;;0.90;;
51020;SDS011;38907;45.562;8.856;2022-08-19T03:16:55;4.15;;;0.77;;
51020;SDS011;38907;45.562;8.856;2022-08-19T03:21:58;4.78;;;0.73;;
51020;SDS011;38907;45.562;8.856;2022-08-19T03:27:02;1.92;;;1.13;;
51020;SDS011;38907;45.562;8.856;2022-08-19T03:32:05;2.17;;;0.75;;
51020;SDS011;38907;45.562;8.856;2022-08-19T03:42:12;4.97;;;1.00;;
51020;SDS011;38907;45.562;8.856;2022-08-19T03:47:17;1.40;;;0.95;;
51020;SDS011;38907;45.562;8.856;2022-08-19T03:52:19;3.35;;;1.13;;
51020;SDS011;38907;45.562;8.856;2022-08-19T03:57:23;4.40;;;1.27;;
51020;SDS011;38907;45.562;8.856;2022-08-19T04:02:26;1.38;;;1.10;;
51020;SDS011;38907;45.562;8.856;2022-08-19T04:07:29;3.15;;;1.40;;
51020;SDS011;38907;45.562;8.856;2022-08-19T04:12:33;3.40;;;1.10;;
51020;SDS011;38907;45.562;8.856;2022-08-19T04:17:36;3.97;;;1.60;;
51020;SDS011;38907;45.562;8.856;2022-08-19T04:22:38;1.52;;;1.15;;
51020;SDS011;38907;45.562;8.856;2022-08-19T04:27:42;7.45;;;1.50;;
51020;SDS011;38907;45.562;8.856;2022-08-19T04:32:48;1.40;;;1.10;;
51020;SDS011;38907;45.562;8.856;2022-08-19T04:37:51;1.90;;;1.30;;
51020;SDS011;38907;45.562;8.856;2022-08-19T04:42:55;1.95;;;1.35;;
51020;SDS011;38907;45.562;8.856;2022-08-19T04:47:57;2.78;;;1.00;;
51020;SDS011;38907;45.562;8.856;2022-08-19T04:53:02;6.93;;;1.30;;
51020;SDS011;38907;45.562;8.856;2022-08-19T04:58:06;9.18;;;1.60;;
51020;SDS011;38907;45.562;8.856;2022-08-19T05:03:09;2.97;;;1.52;;
51020;SDS011;38907;45.562;8.856;2022-08-19T05:08:13;6.55;;;1.60;;
51020;SDS011;38907;45.562;8.856;2022-08-19T05:13:21;2.88;;;1.30;;
51020;SDS011;38907;45.562;8.856;2022-08-19T05:18:24;3.58;;;1.30;;
51020;SDS011;38907;45.562;8.856;2022-08-19T05:23:44;2.40;;;1.25;;
51020;SDS011;38907;45.562;8.856;2022-08-19T05:28:49;3.60;;;1.25;;
51020;SDS011;38907;45.562;8.856;2022-08-19T05:33:51;1.98;;;1.13;;
51020;SDS011;38907;45.562;8.856;2022-08-19T05:38:54;2.90;;;1.73;;
51020;SDS011;38907;45.562;8.856;2022-08-19T05:44:00;6.43;;;1.50;;
51020;SDS011;38907;45.562;8.856;2022-08-19T05:49:06;3.22;;;1.35;;
51020;SDS011;38907;45.562;8.856;2022-08-19T05:54:09;1.85;;;1.33;;
51020;SDS011;38907;45.562;8.856;2022-08-19T05:59:15;5.75;;;1.45;;
51020;SDS011;38907;45.562;8.856;2022-08-19T06:04:19;4.85;;;1.58;;
51020;SDS011;38907;45.562;8.856;2022-08-19T06:09:23;3.13;;;1.30;;
51020;SDS011;38907;45.562;8.856;2022-08-19T06:14:29;2.88;;;1.30;;
51020;SDS011;38907;45.562;8.856;2022-08-19T06:19:34;4.03;;;1.13;;
51020;SDS011;38907;45.562;8.856;2022-08-19T06:24:39;2.33;;;1.13;;
51020;SDS011;38907;45.562;8.856;2022-08-19T06:29:43;6.10;;;1.40;;
51020;SDS011;38907;45.562;8.856;2022-08-19T06:34:47;4.47;;;1.27;;
51020;SDS011;38907;45.562;8.856;2022-08-19T06:39:49;2.53;;;1.10;;
51020;SDS011;38907;45.562;8.856;2022-08-19T06:49:56;4.22;;;1.60;;
51020;SDS011;38907;45.562;8.856;2022-08-19T06:55:02;2.55;;;1.73;;
51020;SDS011;38907;45.562;8.856;2022-08-19T07:00:08;2.55;;;1.60;;
51020;SDS011;38907;45.562;8.856;2022-08-19T07:05:13;3.58;;;1.75;;
51020;SDS011;38907;45.562;8.856;2022-08-19T07:10:17;1.58;;;1.20;;
51020;SDS011;38907;45.562;8.856;2022-08-19T07:15:21;4.95;;;1.58;;
51020;SDS011;38907;45.562;8.856;2022-08-19T07:20:24;1.88;;;1.27;;
51020;SDS011;38907;45.562;8.856;2022-08-19T07:25:27;1.30;;;1.08;;
51020;SDS011;38907;45.562;8.856;2022-08-19T07:30:32;2.58;;;1.05;;
51020;SDS011;38907;45.562;8.856;2022-08-19T07:35:37;5.18;;;1.95;;
51020;SDS011;38907;45.562;8.856;2022-08-19T07:40:40;3.85;;;1.50;;
51020;SDS011;38907;45.562;8.856;2022-08-19T07:45:44;3.55;;;1.38;;
51020;SDS011;38907;45.562;8.856;2022-08-19T07:50:47;1.80;;;1.08;;
51020;SDS011;38907;45.562;8.856;2022-08-19T07:55:50;2.00;;;1.17;;
51020;SDS011;38907;45.562;8.856;2022-08-19T08:00:55;3.28;;;1.33;;
51020;SDS011;38907;45.562;8.856;2022-08-19T08:05:58;4.57;;;1.30;;
51020;SDS011;38907;45.562;8.856;2022-08-19T08:11:19;6.13;;;1.10;;
51020;SDS011;38907;45.562;8.856;2022-08-19T08:16:23;1.50;;;1.02;;
51020;SDS011;38907;45.562;8.856;2022-08-19T08:21:30;3.33;;;1.17;;
51020;SDS011;38907;45.562;8.856;2022-08-19T08:26:32;1.70;;;1.10;;
51020;SDS011;38907;45.562;8.856;2022-08-19T08:31:37;1.67;;;1.10;;
51020;SDS011;38907;45.562;8.856;2022-08-19T08:36:41;2.65;;;1.30;;
51020;SDS011;38907;45.562;8.856;2022-08-19T08:41:46;6.57;;;1.50;;
51020;SDS011;38907;45.562;8.856;2022-08-19T08:46:57;6.32;;;1.40;;
51020;SDS011;38907;45.562;8.856;2022-08-19T08:52:03;8.45;;;1.30;;
51020;SDS011;38907;45.562;8.856;2022-08-19T08:57:10;2.45;;;1.50;;
51020;SDS011;38907;45.562;8.856;2022-08-19T09:02:17;9.70;;;1.42;;
51020;SDS011;38907;45.562;8.856;2022-08-19T09:07:26;7.00;;;1.83;;
51020;SDS011;38907;45.562;8.856;2022-08-19T09:12:39;4.80;;;1.45;;
51020;SDS011;38907;45.562;8.856;2022-08-19T09:17:51;3.00;;;1.50;;
51020;SDS011;38907;45.562;8.856;2022-08-19T09:22:54;2.55;;;1.30;;
51020;SDS011;38907;45.562;8.856;2022-08-19T09:33:04;2.10;;;1.42;;
51020;SDS011;38907;45.562;8.856;2022-08-19T09:38:06;2.88;;;1.33;;
51020;SDS011;38907;45.562;8.856;2022-08-19T09:48:12;3.47;;;1.35;;
51020;SDS011;38907;45.562;8.856;2022-08-19T09:53:15;4.60;;;1.80;;
51020;SDS011;38907;45.562;8.856;2022-08-19T09:58:18;3.00;;;2.08;;
51020;SDS011;38907;45.562;8.856;2022-08-19T10:03:22;4.22;;;1.85;;
51020;SDS011;38907;45.562;8.856;2022-08-19T14:30:51;0.70;;;0.60;;
51020;SDS011;38907;45.562;8.856;2022-08-19T14:35:55;0.52;;;0.50;;
51020;SDS011;38907;45.562;8.856;2022-08-19T14:41:08;2.95;;;0.80;;
51020;SDS011;38907;45.562;8.856;2022-08-19T14:46:21;3.58;;;0.70;;
51020;SDS011;38907;45.562;8.856;2022-08-19T14:51:25;1.25;;;0.50;;
51020;SDS011;38907;45.562;8.856;2022-08-19T14:56:29;0.50;;;0.50;;
51020;SDS011;38907;45.562;8.856;2022-08-19T15:01:33;3.22;;;0.70;;
51020;SDS011;38907;45.562;8.856;2022-08-19T15:06:36;0.70;;;0.50;;
51020;SDS011;38907;45.562;8.856;2022-08-19T15:11:39;2.05;;;0.52;;
51020;SDS011;38907;45.562;8.856;2022-08-19T15:16:44;0.47;;;0.40;;
51020;SDS011;38907;45.562;8.856;2022-08-19T15:21:46;1.15;;;0.40;;
51020;SDS011;38907;45.562;8.856;2022-08-19T15:26:49;1.92;;;0.40;;
51020;SDS011;38907;45.562;8.856;2022-08-19T15:31:53;1.80;;;0.52;;
51020;SDS011;38907;45.562;8.856;2022-08-19T15:36:57;1.10;;;0.50;;
51020;SDS011;38907;45.562;8.856;2022-08-19T15:41:59;1.33;;;0.60;;
51020;SDS011;38907;45.562;8.856;2022-08-19T15:47:04;1.25;;;0.45;;
51020;SDS011;38907;45.562;8.856;2022-08-19T15:52:07;1.33;;;0.25;;
51020;SDS011;38907;45.562;8.856;2022-08-19T15:57:10;1.00;;;0.40;;
51020;SDS011;38907;45.562;8.856;2022-08-19T16:02:31;0.65;;;0.30;;
51020;SDS011;38907;45.562;8.856;2022-08-19T16:07:52;0.85;;;0.40;;
51020;SDS011;38907;45.562;8.856;2022-08-19T16:12:54;1.77;;;0.50;;
51020;SDS011;38907;45.562;8.856;2022-08-19T16:17:59;0.57;;;0.52;;
51020;SDS011;38907;45.562;8.856;2022-08-19T16:23:04;1.90;;;0.60;;
51020;SDS011;38907;45.562;8.856;2022-08-19T16:28:15;0.52;;;0.40;;
51020;SDS011;38907;45.562;8.856;2022-08-19T16:33:49;0.82;;;0.50;;
51020;SDS011;38907;45.562;8.856;2022-08-19T16:38:52;0.63;;;0.63;;
51020;SDS011;38907;45.562;8.856;2022-08-19T16:43:54;0.90;;;0.38;;
51020;SDS011;38907;45.562;8.856;2022-08-19T16:48:58;2.45;;;0.60;;
51020;SDS011;38907;45.562;8.856;2022-08-19T16:54:01;1.40;;;0.52;;
51020;SDS011;38907;45.562;8.856;2022-08-19T17:04:18;1.50;;;0.60;;
51020;SDS011;38907;45.562;8.856;2022-08-19T17:10:59;2.58;;;0.70;;
51020;SDS011;38907;45.562;8.856;2022-08-19T17:15:12;0.85;;;0.57;;
51020;SDS011;38907;45.562;8.856;2022-08-19T17:20:16;1.30;;;0.70;;
51020;SDS011;38907;45.562;8.856;2022-08-19T17:25:23;1.25;;;0.60;;
51020;SDS011;38907;45.562;8.856;2022-08-19T17:30:38;0.80;;;0.80;;
51020;SDS011;38907;45.562;8.856;2022-08-19T17:41:37;1.10;;;0.68;;
51020;SDS011;38907;45.562;8.856;2022-08-19T17:46:43;1.77;;;0.80;;
51020;SDS011;38907;45.562;8.856;2022-08-19T17:51:48;0.85;;;0.57;;
51020;SDS011;38907;45.562;8.856;2022-08-19T17:56:53;1.73;;;0.63;;
51020;SDS011;38907;45.562;8.856;2022-08-19T18:01:55;1.38;;;0.73;;
51020;SDS011;38907;45.562;8.856;2022-08-19T18:06:58;1.42;;;0.95;;
51020;SDS011;38907;45.562;8.856;2022-08-19T18:12:05;1.02;;;0.63;;
51020;SDS011;38907;45.562;8.856;2022-08-19T18:17:10;2.63;;;0.88;;
51020;SDS011;38907;45.562;8.856;2022-08-19T18:22:20;1.40;;;0.75;;
51020;SDS011;38907;45.562;8.856;2022-08-19T18:27:27;2.40;;;0.60;;
51020;SDS011;38907;45.562;8.856;2022-08-19T18:32:30;0.70;;;0.50;;
51020;SDS011;38907;45.562;8.856;2022-08-19T18:37:33;0.43;;;0.40;;
51020;SDS011;38907;45.562;8.856;2022-08-19T18:42:41;3.33;;;0.70;;
51020;SDS011;38907;45.562;8.856;2022-08-19T18:48:16;1.80;;;0.60;;
51020;SDS011;38907;45.562;8.856;2022-08-19T18:53:37;0.47;;;0.47;;
51020;SDS011;38907;45.562;8.856;2022-08-19T18:58:42;1.23;;;0.60;;
51020;SDS011;38907;45.562;8.856;2022-08-19T19:03:46;1.25;;;0.60;;
51020;SDS011;38907;45.562;8.856;2022-08-19T19:08:52;2.05;;;0.60;;
51020;SDS011;38907;45.562;8.856;2022-08-19T19:13:57;2.15;;;0.82;;
51020;SDS011;38907;45.562;8.856;2022-08-19T19:19:02;0.52;;;0.50;;
51020;SDS011;38907;45.562;8.856;2022-08-19T19:24:06;1.38;;;0.68;;
51020;SDS011;38907;45.562;8.856;2022-08-19T19:29:10;0.52;;;0.40;;
51020;SDS011;38907;45.562;8.856;2022-08-19T19:34:13;0.63;;;0.50;;
51020;SDS011;38907;45.562;8.856;2022-08-19T19:39:17;2.97;;;0.57;;
51020;SDS011;38907;45.562;8.856;2022-08-19T19:44:23;3.60;;;0.68;;
51020;SDS011;38907;45.562;8.856;2022-08-19T19:49:26;1.58;;;0.70;;
51020;SDS011;38907;45.562;8.856;2022-08-19T19:54:31;0.43;;;0.40;;
51020;SDS011;38907;45.562;8.856;2022-08-19T19:59:38;3.13;;;0.60;;
51020;SDS011;38907;45.562;8.856;2022-08-19T20:04:41;0.70;;;0.60;;
51020;SDS011;38907;45.562;8.856;2022-08-19T20:09:44;3.85;;;0.85;;
51020;SDS011;38907;45.562;8.856;2022-08-19T20:14:48;3.22;;;0.82;;
51020;SDS011;38907;45.562;8.856;2022-08-19T20:19:51;2.28;;;0.65;;
51020;SDS011;38907;45.562;8.856;2022-08-19T20:24:56;0.80;;;0.80;;
51020;SDS011;38907;45.562;8.856;2022-08-19T20:30:02;2.10;;;0.75;;
51020;SDS011;38907;45.562;8.856;2022-08-19T20:35:06;1.70;;;0.90;;
51020;SDS011;38907;45.562;8.856;2022-08-19T20:40:11;6.28;;;0.90;;
51020;SDS011;38907;45.562;8.856;2022-08-19T20:45:19;2.58;;;0.90;;
51020;SDS011;38907;45.562;8.856;2022-08-19T20:50:24;2.47;;;0.70;;
51020;SDS011;38907;45.562;8.856;2022-08-19T20:55:28;1.52;;;0.77;;
51020;SDS011;38907;45.562;8.856;2022-08-19T21:00:32;0.73;;;0.60;;
51020;SDS011;38907;45.562;8.856;2022-08-19T21:05:35;0.65;;;0.60;;
51020;SDS011;38907;45.562;8.856;2022-08-19T21:10:38;0.80;;;0.57;;
51020;SDS011;38907;45.562;8.856;2022-08-19T21:15:43;2.22;;;0.90;;
51020;SDS011;38907;45.562;8.856;2022-08-19T21:20:47;0.60;;;0.60;;
51020;SDS011;38907;45.562;8.856;2022-08-19T21:25:51;0.60;;;0.60;;
51020;SDS011;38907;45.562;8.856;2022-08-19T21:30:56;4.35;;;0.70;;
51020;SDS011;38907;45.562;8.856;2022-08-19T21:36:00;0.80;;;0.70;;
51020;SDS011;38907;45.562;8.856;2022-08-19T21:41:08;2.17;;;0.90;;
51020;SDS011;38907;45.562;8.856;2022-08-19T21:46:12;1.65;;;0.95;;
51020;SDS011;38907;45.562;8.856;2022-08-19T21:51:15;1.45;;;0.60;;
51020;SDS011;38907;45.562;8.856;2022-08-19T21:56:18;1.55;;;0.63;;
51020;SDS011;38907;45.562;8.856;2022-08-19T22:01:23;0.75;;;0.75;;
51020;SDS011;38907;45.562;8.856;2022-08-19T22:06:25;1.15;;;0.70;;
51020;SDS011;38907;45.562;8.856;2022-08-19T22:11:28;0.90;;;0.80;;
51020;SDS011;38907;45.562;8.856;2022-08-19T22:16:32;1.17;;;0.68;;
51020;SDS011;38907;45.562;8.856;2022-08-19T22:21:34;0.93;;;0.75;;
51020;SDS011;38907;45.562;8.856;2022-08-19T22:31:39;0.77;;;0.67;;
51020;SDS011;38907;45.562;8.856;2022-08-19T22:36:42;1.50;;;0.75;;
51020;SDS011;38907;45.562;8.856;2022-08-19T22:41:44;1.52;;;0.75;;
51020;SDS011;38907;45.562;8.856;2022-08-19T22:46:49;1.20;;;0.70;;
51020;SDS011;38907;45.562;8.856;2022-08-19T22:51:51;2.22;;;0.80;;
51020;SDS011;38907;45.562;8.856;2022-08-19T22:57:12;1.23;;;1.00;;
51020;SDS011;38907;45.562;8.856;2022-08-19T23:02:18;3.13;;;0.82;;
51020;SDS011;38907;45.562;8.856;2022-08-19T23:07:22;0.95;;;0.55;;
51020;SDS011;38907;45.562;8.856;2022-08-19T23:12:26;0.90;;;0.82;;
51020;SDS011;38907;45.562;8.856;2022-08-19T23:17:32;0.70;;;0.70;;
51020;SDS011;38907;45.562;8.856;2022-08-19T23:22:35;1.60;;;0.80;;
51020;SDS011;38907;45.562;8.856;2022-08-19T23:27:38;1.38;;;0.73;;
51020;SDS011;38907;45.562;8.856;2022-08-19T23:33:01;1.20;;;0.88;;
51020;SDS011;38907;45.562;8.856;2022-08-19T23:38:08;4.25;;;0.70;;
51020;SDS011;38907;45.562;8.856;2022-08-19T23:43:10;2.20;;;0.93;;
51020;SDS011;38907;45.562;8.856;2022-08-19T23:48:14;0.70;;;0.70;;
51020;SDS011;38907;45.562;8.856;2022-08-19T23:53:17;1.20;;;1.00;;
51020;SDS011;38907;45.562;8.856;2022-08-19T23:58:21;0.80;;;0.80;;
